createdAt,value
2023-03-13T00:01:01.029Z,99611.38
2023-03-13T00:02:03.325Z,99615.75
2023-03-13T00:03:05.977Z,99624.88
2023-03-13T00:04:08.720Z,99614.94
2023-03-13T00:05:13.985Z,99604.22
2023-03-13T00:06:19.348Z,99608.63
2023-03-13T00:07:21.587Z,99618.28
2023-03-13T00:08:25.160Z,99617.16
2023-03-13T00:09:28.522Z,99610.56
2023-03-13T00:10:30.820Z,99608.91
2023-03-13T00:11:34.183Z,99616.06
2023-03-13T00:12:36.673Z,99617.16
2023-03-13T00:13:39.138Z,99615.81
2023-03-13T00:14:41.467Z,99618.56
2023-03-13T00:15:43.630Z,99613.03
2023-03-13T00:16:50.085Z,99615.56
2023-03-13T00:17:52.364Z,99615.56
2023-03-13T00:18:55.853Z,99617.19
2023-03-13T00:19:58.088Z,99619.72
2023-03-13T00:21:09.256Z,99611.44
2023-03-13T00:22:11.642Z,99613.94
2023-03-13T00:23:13.877Z,99613.66
2023-03-13T00:24:16.776Z,99611.19
2023-03-13T00:25:19.500Z,99614.47
2023-03-13T00:26:24.571Z,99607.34
2023-03-13T00:27:26.724Z,99610.09
2023-03-13T00:28:32.616Z,99614.47
2023-03-13T00:29:35.220Z,99613.41
2023-03-13T00:30:37.798Z,99616.13
2023-03-13T00:31:40.228Z,99611.72
2023-03-13T00:32:47.505Z,99616.97
2023-03-13T00:33:53.677Z,99616.97
2023-03-13T00:34:55.968Z,99615.06
2023-03-13T00:36:01.584Z,99614.22
2023-03-13T00:37:03.790Z,99606.53
2023-03-13T00:38:05.989Z,99607.63
2023-03-13T00:39:08.319Z,99614.78
2023-03-13T00:40:11.654Z,99610.09
2023-03-13T00:41:16.997Z,99617.25
2023-03-13T00:42:19.167Z,99613.44
2023-03-13T00:43:21.355Z,99616.19
2023-03-13T00:44:23.562Z,99617.84
2023-03-13T00:45:27.143Z,99614.25
2023-03-13T00:46:30.994Z,99610.41
2023-03-13T00:47:34.469Z,99612.06
2023-03-13T00:48:40.166Z,99604.91
2023-03-13T00:49:42.367Z,99604.91
2023-03-13T00:50:44.629Z,99602.72
2023-03-13T00:51:46.920Z,99601.88
2023-03-13T00:52:49.150Z,99601.88
2023-03-13T00:53:51.320Z,99604.63
2023-03-13T00:54:53.746Z,99608.22
2023-03-13T00:56:00.107Z,99606.28
2023-03-13T00:57:02.971Z,99613.47
2023-03-13T00:58:05.407Z,99600.78
2023-03-13T00:59:08.335Z,99606.28
2023-03-13T01:00:11.482Z,99598.88
2023-03-13T01:01:22.900Z,99597.22
2023-03-13T01:02:27.848Z,99605.19
2023-03-13T01:03:30.602Z,99600.50
2023-03-13T01:04:32.917Z,99608.78
2023-03-13T01:05:35.174Z,99604.94
2023-03-13T01:06:42.839Z,99592.25
2023-03-13T01:07:45.369Z,99593.91
2023-03-13T01:08:48.390Z,99592.81
2023-03-13T01:09:50.660Z,99586.50
2023-03-13T01:11:02.175Z,99580.72
2023-03-13T01:12:04.553Z,99582.63
2023-03-13T01:13:07.540Z,99588.72
2023-03-13T01:14:18.940Z,99582.13
2023-03-13T01:15:21.649Z,99579.38
2023-03-13T01:16:24.865Z,99571.38
2023-03-13T01:17:28.744Z,99577.69
2023-03-13T01:18:31.289Z,99579.38
2023-03-13T01:19:34.162Z,99580.19
2023-03-13T01:20:36.400Z,99579.38
2023-03-13T01:21:39.213Z,99576.34
2023-03-13T01:22:41.345Z,99570.00
2023-03-13T01:23:43.687Z,99576.34
2023-03-13T01:24:47.785Z,99577.16
2023-03-13T01:25:50.251Z,99578.28
2023-03-13T01:26:52.490Z,99578.00
2023-03-13T01:27:54.875Z,99574.16
2023-03-13T01:28:57.869Z,99570.28
2023-03-13T01:30:01.048Z,99570.28
2023-03-13T01:31:24.236Z,99563.44
2023-03-13T01:32:26.564Z,99559.84
2023-03-13T01:33:29.730Z,99559.00
2023-03-13T01:34:33.070Z,99561.53
2023-03-13T01:35:35.271Z,99560.69
2023-03-13T01:36:38.230Z,99559.59
2023-03-13T01:37:40.399Z,99557.94
2023-03-13T01:38:43.837Z,99556.84
2023-03-13T01:39:47.172Z,99566.19
2023-03-13T01:40:49.881Z,99556.84
2023-03-13T01:41:52.197Z,99559.59
2023-03-13T01:43:00.197Z,99561.25
2023-03-13T01:44:03.145Z,99565.94
2023-03-13T01:45:47.369Z,99557.66
2023-03-13T01:46:49.758Z,99553.81
2023-03-13T01:48:01.085Z,99548.31
2023-03-13T01:49:34.783Z,99553.00
2023-03-13T01:50:43.507Z,99540.31
2023-03-13T01:52:16.024Z,99547.22
2023-03-13T01:53:25.512Z,99551.91
2023-03-13T01:54:45.599Z,99545.28
2023-03-13T01:55:50.912Z,99544.19
2023-03-13T01:57:03.470Z,99546.69
2023-03-13T01:58:05.811Z,99550.56
2023-03-13T01:59:11.211Z,99539.78
2023-03-13T02:00:18.002Z,99548.03
2023-03-13T02:01:20.970Z,99539.78
2023-03-13T02:02:24.840Z,99530.69
2023-03-13T02:03:28.467Z,99538.97
2023-03-13T02:04:36.778Z,99539.25
2023-03-13T02:05:41.432Z,99536.47
2023-03-13T02:06:47.028Z,99533.47
2023-03-13T02:08:01.465Z,99540.06
2023-03-13T02:09:07.970Z,99531.78
2023-03-13T02:10:11.696Z,99527.38
2023-03-13T02:11:23.583Z,99526.28
2023-03-13T02:12:32.910Z,99514.44
2023-03-13T02:13:37.448Z,99522.72
2023-03-13T02:14:43.268Z,99523.81
2023-03-13T02:15:46.425Z,99519.13
2023-03-13T02:16:52.134Z,99514.72
2023-03-13T02:17:56.422Z,99508.38
2023-03-13T02:19:02.165Z,99510.28
2023-03-13T02:20:05.312Z,99507.28
2023-03-13T02:21:20.524Z,99511.13
2023-03-13T02:22:52.121Z,99508.38
2023-03-13T02:24:02.829Z,99503.94
2023-03-13T02:25:23.348Z,99502.03
2023-03-13T02:26:28.127Z,99507.53
2023-03-13T02:27:30.378Z,99507.81
2023-03-13T02:28:35.282Z,99499.53
2023-03-13T02:29:41.920Z,99499.81
2023-03-13T02:30:45.696Z,99497.31
2023-03-13T02:31:48.729Z,99503.66
2023-03-13T02:32:55.685Z,99507.50
2023-03-13T02:34:00.870Z,99503.66
2023-03-13T02:35:08.787Z,99510.25
2023-03-13T02:36:14.882Z,99511.34
2023-03-13T02:37:19.811Z,99509.69
2023-03-13T02:38:25.775Z,99509.69
2023-03-13T02:39:30.597Z,99503.38
2023-03-13T02:40:37.293Z,99507.78
2023-03-13T02:41:42.223Z,99507.22
2023-03-13T02:42:48.731Z,99504.44
2023-03-13T02:43:51.059Z,99503.63
2023-03-13T02:44:54.477Z,99500.88
2023-03-13T02:46:18.316Z,99501.69
2023-03-13T02:47:25.298Z,99501.16
2023-03-13T02:48:36.066Z,99498.66
2023-03-13T02:49:39.102Z,99501.41
2023-03-13T02:50:41.752Z,99506.09
2023-03-13T02:51:46.203Z,99504.44
2023-03-13T02:53:02.120Z,99511.88
2023-03-13T02:54:12.416Z,99514.63
2023-03-13T02:55:22.628Z,99501.94
2023-03-13T02:56:27.135Z,99499.19
2023-03-13T02:57:31.881Z,99499.19
2023-03-13T02:58:49.789Z,99507.72
2023-03-13T02:59:55.554Z,99505.25
2023-03-13T03:00:57.941Z,99502.50
2023-03-13T03:02:01.207Z,99503.31
2023-03-13T03:03:03.507Z,99506.88
2023-03-13T03:04:06.789Z,99497.81
2023-03-13T03:05:09.929Z,99506.06
2023-03-13T03:06:12.192Z,99507.16
2023-03-13T03:07:14.770Z,99513.50
2023-03-13T03:08:17.639Z,99508.25
2023-03-13T03:09:22.244Z,99513.50
2023-03-13T03:10:27.472Z,99506.34
2023-03-13T03:11:29.812Z,99507.16
2023-03-13T03:12:36.840Z,99504.41
2023-03-13T03:13:40.139Z,99507.72
2023-03-13T03:14:42.410Z,99498.63
2023-03-13T03:15:45.833Z,99495.63
2023-03-13T03:16:48.779Z,99501.13
2023-03-13T03:17:51.635Z,99495.06
2023-03-13T03:18:53.891Z,99493.13
2023-03-13T03:19:57.808Z,99491.22
2023-03-13T03:21:00.618Z,99490.13
2023-03-13T03:22:03.289Z,99490.13
2023-03-13T03:23:07.637Z,99481.88
2023-03-13T03:24:10.082Z,99485.44
2023-03-13T03:25:12.701Z,99483.50
2023-03-13T03:26:14.931Z,99478.84
2023-03-13T03:27:17.186Z,99481.31
2023-03-13T03:28:25.218Z,99476.63
2023-03-13T03:29:28.066Z,99475.53
2023-03-13T03:30:31.480Z,99473.06
2023-03-13T03:31:34.177Z,99468.38
2023-03-13T03:32:38.144Z,99465.59
2023-03-13T03:33:41.078Z,99466.72
2023-03-13T03:34:46.019Z,99464.78
2023-03-13T03:35:49.133Z,99458.47
2023-03-13T03:36:51.671Z,99456.53
2023-03-13T03:37:54.173Z,99462.84
2023-03-13T03:38:56.881Z,99464.78
2023-03-13T03:40:02.005Z,99455.72
2023-03-13T03:41:07.803Z,99456.53
2023-03-13T03:42:10.599Z,99457.34
2023-03-13T03:43:13.616Z,99457.34
2023-03-13T03:44:16.534Z,99449.09
2023-03-13T03:45:40.352Z,99445.25
2023-03-13T03:46:42.984Z,99448.00
2023-03-13T03:47:46.803Z,99441.41
2023-03-13T03:48:49.280Z,99443.34
2023-03-13T03:49:52.044Z,99441.41
2023-03-13T03:50:55.050Z,99431.47
2023-03-13T03:51:58.154Z,99432.34
2023-03-13T03:53:06.255Z,99430.38
2023-03-13T03:54:08.543Z,99436.72
2023-03-13T03:55:10.701Z,99437.56
2023-03-13T03:56:13.136Z,99431.22
2023-03-13T03:57:21.176Z,99423.78
2023-03-13T03:58:24.122Z,99423.78
2023-03-13T03:59:35.447Z,99415.25
2023-03-13T04:00:48.127Z,99414.44
2023-03-13T04:01:51.466Z,99415.25
2023-03-13T04:02:59.224Z,99420.75
2023-03-13T04:04:01.729Z,99413.59
2023-03-13T04:05:06.023Z,99414.44
2023-03-13T04:06:24.366Z,99403.44
2023-03-13T04:07:26.633Z,99400.69
2023-03-13T04:08:29.159Z,99396.00
2023-03-13T04:09:32.945Z,99400.41
2023-03-13T04:10:36.895Z,99401.22
2023-03-13T04:11:39.336Z,99392.13
2023-03-13T04:12:44.429Z,99394.03
2023-03-13T04:13:46.699Z,99397.66
2023-03-13T04:14:48.995Z,99397.38
2023-03-13T04:15:51.463Z,99390.19
2023-03-13T04:16:53.691Z,99407.28
2023-03-13T04:17:55.860Z,99395.44
2023-03-13T04:18:58.325Z,99398.19
2023-03-13T04:20:01.949Z,99391.06
2023-03-13T04:21:06.452Z,99393.53
2023-03-13T04:22:16.576Z,99395.44
2023-03-13T04:23:25.975Z,99385.28
2023-03-13T04:24:28.213Z,99382.50
2023-03-13T04:25:33.253Z,99379.47
2023-03-13T04:26:38.751Z,99385.81
2023-03-13T04:27:41.383Z,99375.06
2023-03-13T04:28:45.278Z,99382.22
2023-03-13T04:29:52.470Z,99374.78
2023-03-13T04:31:13.460Z,99373.16
2023-03-13T04:32:34.142Z,99371.50
2023-03-13T04:33:52.960Z,99362.41
2023-03-13T04:35:16.349Z,99360.75
2023-03-13T04:36:30.315Z,99361.31
2023-03-13T04:37:48.116Z,99358.53
2023-03-13T04:39:01.991Z,99355.78
2023-03-13T04:40:13.839Z,99351.38
2023-03-13T04:41:35.464Z,99340.94
2023-03-13T04:42:51.899Z,99343.69
2023-03-13T04:44:00.117Z,99348.38
2023-03-13T04:45:12.743Z,99338.47
2023-03-13T04:46:24.351Z,99333.78
2023-03-13T04:47:35.583Z,99336.53
2023-03-13T04:49:02.822Z,99327.44
2023-03-13T04:50:37.809Z,99336.81
2023-03-13T04:51:59.553Z,99329.09
2023-03-13T04:53:10.685Z,99335.72
2023-03-13T04:54:39.319Z,99318.09
2023-03-13T04:55:56.775Z,99314.78
2023-03-13T04:57:15.972Z,99315.59
2023-03-13T04:58:38.627Z,99316.97
2023-03-13T04:59:47.242Z,99312.59
2023-03-13T05:01:02.980Z,99322.19
2023-03-13T05:02:24.107Z,99303.19
2023-03-13T05:03:44.804Z,99303.19
2023-03-13T05:05:14.526Z,99310.13
2023-03-13T05:06:49.817Z,99305.47
2023-03-13T05:08:08.849Z,99306.28
2023-03-13T05:09:20.140Z,99304.63
2023-03-13T05:10:33.304Z,99289.16
2023-03-13T05:11:38.482Z,99292.75
2023-03-13T05:13:09.921Z,99288.09
2023-03-13T05:14:30.618Z,99285.34
2023-03-13T05:16:02.675Z,99292.50
2023-03-13T05:17:23.569Z,99277.94
2023-03-13T05:18:25.728Z,99283.16
2023-03-13T05:19:47.702Z,99266.63
2023-03-13T05:21:03.063Z,99268.28
2023-03-13T05:22:18.201Z,99263.31
2023-03-13T05:23:42.059Z,99257.81
2023-03-13T05:24:59.800Z,99259.47
2023-03-13T05:26:12.115Z,99253.97
2023-03-13T05:27:34.543Z,99255.34
2023-03-13T05:28:56.714Z,99251.78
2023-03-13T05:30:09.841Z,99247.06
2023-03-13T05:31:24.880Z,99246.78
2023-03-13T05:32:48.346Z,99251.22
2023-03-13T05:34:10.592Z,99243.75
2023-03-13T05:35:31.127Z,99233.59
2023-03-13T05:36:46.506Z,99240.75
2023-03-13T05:37:55.822Z,99235.25
2023-03-13T05:39:20.545Z,99237.72
2023-03-13T05:40:24.609Z,99237.72
2023-03-13T05:41:45.567Z,99237.72
2023-03-13T05:43:07.241Z,99245.69
2023-03-13T05:44:28.322Z,99235.50
2023-03-13T05:45:49.398Z,99228.59
2023-03-13T05:47:12.925Z,99231.34
2023-03-13T05:48:40.415Z,99220.09
2023-03-13T05:50:12.210Z,99224.19
2023-03-13T05:51:40.925Z,99223.09
2023-03-13T05:53:13.561Z,99217.28
2023-03-13T05:54:28.437Z,99211.78
2023-03-13T05:55:44.745Z,99216.75
2023-03-13T05:57:19.175Z,99209.03
2023-03-13T05:58:56.565Z,99204.66
2023-03-13T06:00:26.532Z,99199.13
2023-03-13T06:01:55.824Z,99198.00
2023-03-13T06:03:06.885Z,99192.25
2023-03-13T06:04:13.456Z,99201.59
2023-03-13T06:05:16.756Z,99207.94
2023-03-13T06:06:20.049Z,99214.28
2023-03-13T06:07:30.251Z,99213.16
2023-03-13T06:08:33.188Z,99198.28
2023-03-13T06:09:35.919Z,99209.00
2023-03-13T06:10:39.783Z,99208.75
2023-03-13T06:11:42.603Z,99208.75
2023-03-13T06:13:13.726Z,99215.09
2023-03-13T06:14:20.280Z,99212.03
2023-03-13T06:15:36.100Z,99210.13
2023-03-13T06:16:49.061Z,99206.25
2023-03-13T06:17:55.346Z,99207.91
2023-03-13T06:18:58.412Z,99207.63
2023-03-13T06:20:00.859Z,99198.53
2023-03-13T06:21:03.477Z,99197.44
2023-03-13T06:22:05.748Z,99190.56
2023-03-13T06:23:08.226Z,99180.63
2023-03-13T06:24:10.826Z,99178.41
2023-03-13T06:25:14.773Z,99173.72
2023-03-13T06:26:17.667Z,99170.97
2023-03-13T06:27:21.195Z,99173.16
2023-03-13T06:28:23.438Z,99172.34
2023-03-13T06:29:25.764Z,99167.38
2023-03-13T06:30:27.959Z,99168.72
2023-03-13T06:31:30.735Z,99166.81
2023-03-13T06:32:33.402Z,99167.63
2023-03-13T06:33:35.860Z,99166.53
2023-03-13T06:34:38.115Z,99152.47
2023-03-13T06:35:55.245Z,99163.19
2023-03-13T06:37:01.392Z,99149.41
2023-03-13T06:38:04.867Z,99159.06
2023-03-13T06:39:07.344Z,99157.16
2023-03-13T06:40:10.612Z,99146.66
2023-03-13T06:41:14.768Z,99150.25
2023-03-13T06:42:17.082Z,99143.59
2023-03-13T06:43:20.974Z,99149.66
2023-03-13T06:44:23.235Z,99142.50
2023-03-13T06:45:27.266Z,99144.16
2023-03-13T06:46:29.759Z,99141.94
2023-03-13T06:47:32.871Z,99135.31
2023-03-13T06:48:35.708Z,99133.41
2023-03-13T06:49:38.225Z,99131.16
2023-03-13T06:50:44.811Z,99138.34
2023-03-13T06:51:47.177Z,99136.13
2023-03-13T06:52:49.475Z,99144.09
2023-03-13T06:53:52.599Z,99132.78
2023-03-13T06:54:56.133Z,99127.00
2023-03-13T06:56:01.115Z,99124.78
2023-03-13T06:57:03.433Z,99124.78
2023-03-13T06:58:05.652Z,99127.25
2023-03-13T06:59:08.039Z,99130.56
2023-03-13T07:00:11.850Z,99118.44
2023-03-13T07:01:16.145Z,99117.00
2023-03-13T07:02:19.471Z,99115.91
2023-03-13T07:03:21.731Z,99128.00
2023-03-13T07:04:25.211Z,99126.91
2023-03-13T07:05:27.628Z,99130.22
2023-03-13T07:06:30.152Z,99130.22
2023-03-13T07:07:33.676Z,99119.72
2023-03-13T07:08:36.982Z,99128.25
2023-03-13T07:09:39.254Z,99128.25
2023-03-13T07:10:43.280Z,99123.28
2023-03-13T07:11:47.796Z,99120.22
2023-03-13T07:12:50.008Z,99116.06
2023-03-13T07:14:03.259Z,99128.75
2023-03-13T07:15:14.609Z,99102.78
2023-03-13T07:16:20.599Z,99106.91
2023-03-13T07:17:22.944Z,99105.81
2023-03-13T07:18:25.311Z,99096.44
2023-03-13T07:19:27.614Z,99103.31
2023-03-13T07:20:31.188Z,99091.19
2023-03-13T07:21:36.428Z,99097.22
2023-03-13T07:22:38.590Z,99099.16
2023-03-13T07:23:41.621Z,99095.00
2023-03-13T07:24:43.928Z,99098.31
2023-03-13T07:26:03.416Z,99094.41
2023-03-13T07:27:08.176Z,99094.16
2023-03-13T07:28:10.649Z,99094.16
2023-03-13T07:29:15.336Z,99090.25
2023-03-13T07:30:19.435Z,99089.16
2023-03-13T07:31:23.979Z,99085.28
2023-03-13T07:32:26.284Z,99081.13
2023-03-13T07:33:28.655Z,99081.94
2023-03-13T07:34:30.866Z,99087.16
2023-03-13T07:35:35.915Z,99075.88
2023-03-13T07:36:41.927Z,99075.88
2023-03-13T07:37:47.781Z,99078.34
2023-03-13T07:38:50.859Z,99073.66
2023-03-13T07:39:54.930Z,99070.59
2023-03-13T07:40:58.347Z,99067.03
2023-03-13T07:42:00.512Z,99059.84
2023-03-13T07:43:04.284Z,99057.09
2023-03-13T07:44:07.007Z,99053.22
2023-03-13T07:45:09.747Z,99048.53
2023-03-13T07:46:18.905Z,99065.91
2023-03-13T07:47:21.167Z,99063.97
2023-03-13T07:48:28.860Z,99053.78
2023-03-13T07:49:31.036Z,99063.16
2023-03-13T07:50:33.359Z,99049.66
2023-03-13T07:51:43.509Z,99051.28
2023-03-13T07:52:46.003Z,99040.53
2023-03-13T07:53:48.698Z,99042.19
2023-03-13T07:54:50.973Z,99039.72
2023-03-13T07:55:59.589Z,99052.69
2023-03-13T07:57:03.324Z,99042.78
2023-03-13T07:58:05.544Z,99040.03
2023-03-13T07:59:08.089Z,99044.66
2023-03-13T08:00:16.549Z,99047.44
2023-03-13T08:01:30.339Z,99043.59
2023-03-13T08:02:34.863Z,99061.81
2023-03-13T08:03:39.726Z,99041.91
2023-03-13T08:04:42.733Z,99054.63
2023-03-13T08:05:44.950Z,99064.84
2023-03-13T08:06:47.205Z,99061.22
2023-03-13T08:07:49.406Z,99064.56
2023-03-13T08:08:53.894Z,99063.16
2023-03-13T08:09:56.096Z,99053.81
2023-03-13T08:11:11.345Z,99059.34
2023-03-13T08:12:33.873Z,99068.44
2023-03-13T08:13:43.923Z,99072.25
2023-03-13T08:14:57.521Z,99081.13
2023-03-13T08:16:14.832Z,99067.84
2023-03-13T08:17:17.136Z,99066.47
2023-03-13T08:18:28.470Z,99062.09
2023-03-13T08:19:31.097Z,99076.97
2023-03-13T08:20:34.462Z,99069.50
2023-03-13T08:21:38.061Z,99070.38
2023-03-13T08:22:40.273Z,99075.88
2023-03-13T08:23:43.114Z,99079.72
2023-03-13T08:24:47.327Z,99078.66
2023-03-13T08:25:49.834Z,99080.28
2023-03-13T08:26:51.999Z,99084.97
2023-03-13T08:27:55.115Z,99080.28
2023-03-13T08:29:03.790Z,99072.84
2023-03-13T08:30:07.262Z,99077.50
2023-03-13T08:31:14.124Z,99073.66
2023-03-13T08:32:18.442Z,99068.13
2023-03-13T08:33:22.036Z,99074.50
2023-03-13T08:34:24.209Z,99082.47
2023-03-13T08:35:26.444Z,99085.22
2023-03-13T08:36:32.947Z,99075.00
2023-03-13T08:37:35.250Z,99077.47
2023-03-13T08:38:39.470Z,99074.72
2023-03-13T08:39:41.713Z,99070.03
2023-03-13T08:40:43.872Z,99068.94
2023-03-13T08:41:48.840Z,99076.91
2023-03-13T08:42:51.059Z,99069.75
2023-03-13T08:43:54.740Z,99062.00
2023-03-13T08:44:57.000Z,99054.53
2023-03-13T08:46:00.328Z,99062.53
2023-03-13T08:47:02.572Z,99049.56
2023-03-13T08:48:05.868Z,99046.50
2023-03-13T08:49:08.849Z,99046.22
2023-03-13T08:50:14.280Z,99039.59
2023-03-13T08:51:16.605Z,99034.56
2023-03-13T08:52:18.952Z,99035.41
2023-03-13T08:53:21.090Z,99043.69
2023-03-13T08:54:23.282Z,99042.56
2023-03-13T08:55:26.608Z,99041.44
2023-03-13T08:56:33.280Z,99034.81
2023-03-13T08:57:35.520Z,99045.28
2023-03-13T08:58:38.388Z,99035.06
2023-03-13T08:59:40.584Z,99027.59
2023-03-13T09:00:42.863Z,99031.72
2023-03-13T09:01:45.181Z,99026.19
2023-03-13T09:02:47.588Z,99023.69
2023-03-13T09:03:50.505Z,99024.22
2023-03-13T09:04:53.751Z,99022.56
2023-03-13T09:06:00.369Z,99023.06
2023-03-13T09:07:02.855Z,99025.56
2023-03-13T09:08:05.245Z,99029.69
2023-03-13T09:09:08.364Z,99032.16
2023-03-13T09:10:11.955Z,99037.66
2023-03-13T09:11:19.166Z,99027.13
2023-03-13T09:12:30.865Z,99023.81
2023-03-13T09:13:35.731Z,99008.59
2023-03-13T09:14:37.968Z,99016.59
2023-03-13T09:15:40.341Z,99014.63
2023-03-13T09:16:42.502Z,99015.16
2023-03-13T09:17:44.901Z,99017.94
2023-03-13T09:18:50.304Z,99015.69
2023-03-13T09:20:00.028Z,99014.56
2023-03-13T09:21:03.933Z,99023.41
2023-03-13T09:22:08.696Z,99012.34
2023-03-13T09:23:12.839Z,99018.38
2023-03-13T09:24:15.959Z,99029.16
2023-03-13T09:25:19.595Z,99039.91
2023-03-13T09:26:23.345Z,99016.66
2023-03-13T09:27:25.794Z,99029.06
2023-03-13T09:28:28.838Z,99031.03
2023-03-13T09:29:31.097Z,99028.25
2023-03-13T09:30:35.723Z,99030.41
2023-03-13T09:31:38.624Z,99035.69
2023-03-13T09:32:40.820Z,99034.53
2023-03-13T09:33:46.698Z,99036.19
2023-03-13T09:34:49.075Z,99041.13
2023-03-13T09:35:51.763Z,99029.78
2023-03-13T09:36:53.972Z,99025.91
2023-03-13T09:37:57.157Z,99026.72
2023-03-13T09:39:00.913Z,99031.13
2023-03-13T09:40:05.904Z,99032.78
2023-03-13T09:41:17.167Z,99019.78
2023-03-13T09:42:23.921Z,99018.66
2023-03-13T09:43:41.154Z,99021.94
2023-03-13T09:44:50.081Z,99003.44
2023-03-13T09:45:57.604Z,99011.44
2023-03-13T09:47:13.306Z,99012.25
2023-03-13T09:48:36.296Z,99001.72
2023-03-13T09:49:42.943Z,99006.16
2023-03-13T09:50:55.808Z,99016.88
2023-03-13T09:52:34.667Z,99010.25
2023-03-13T09:53:49.726Z,99016.28
2023-03-13T09:55:20.729Z,99011.59
2023-03-13T09:56:28.140Z,99003.81
2023-03-13T09:57:49.746Z,99003.50
2023-03-13T09:58:59.069Z,98990.22
2023-03-13T10:00:30.855Z,98996.28
2023-03-13T10:01:35.865Z,98994.03
2023-03-13T10:02:38.945Z,98995.69
2023-03-13T10:03:55.708Z,98995.38
2023-03-13T10:05:13.709Z,98984.88
2023-03-13T10:06:21.918Z,98993.66
2023-03-13T10:07:24.092Z,98985.91
2023-03-13T10:08:30.440Z,98991.94
2023-03-13T10:09:33.990Z,98996.06
2023-03-13T10:10:44.534Z,98987.19
2023-03-13T10:12:12.472Z,98989.34
2023-03-13T10:13:22.850Z,98993.47
2023-03-13T10:14:53.234Z,98994.81
2023-03-13T10:16:02.675Z,98981.84
2023-03-13T10:17:13.073Z,98974.56
2023-03-13T10:18:20.602Z,98984.50
2023-03-13T10:19:31.588Z,98982.25
2023-03-13T10:20:36.380Z,98987.47
2023-03-13T10:21:41.033Z,98974.19
2023-03-13T10:22:49.194Z,98986.59
2023-03-13T10:24:38.205Z,98982.41
2023-03-13T10:25:40.529Z,98978.22
2023-03-13T10:26:42.711Z,98979.56
2023-03-13T10:27:51.403Z,98981.22
2023-03-13T10:28:54.730Z,98977.81
2023-03-13T10:29:58.300Z,98980.28
2023-03-13T10:31:41.792Z,98980.50
2023-03-13T10:32:45.537Z,98986.84
2023-03-13T10:33:48.144Z,98983.50
2023-03-13T10:34:51.372Z,98976.00
2023-03-13T10:36:11.053Z,98981.75
2023-03-13T10:37:20.355Z,98981.47
2023-03-13T10:38:25.238Z,98978.91
2023-03-13T10:39:29.653Z,98975.53
2023-03-13T10:40:32.100Z,98976.88
2023-03-13T10:41:37.182Z,98976.56
2023-03-13T10:42:45.720Z,98986.19
2023-03-13T10:43:59.954Z,98981.19
2023-03-13T10:45:05.280Z,98977.81
2023-03-13T10:46:09.222Z,98993.81
2023-03-13T10:47:14.510Z,98976.38
2023-03-13T10:48:22.998Z,98982.13
2023-03-13T10:49:27.676Z,98977.41
2023-03-13T10:50:34.950Z,98977.63
2023-03-13T10:51:39.625Z,98987.56
2023-03-13T10:52:47.599Z,98979.78
2023-03-13T10:53:52.891Z,98983.59
2023-03-13T10:55:11.615Z,98976.91
2023-03-13T10:56:17.333Z,98984.09
2023-03-13T10:57:19.478Z,98980.75
2023-03-13T10:58:30.441Z,98980.13
2023-03-13T10:59:39.144Z,98984.22
2023-03-13T11:00:42.640Z,98995.81
2023-03-13T11:01:45.372Z,98990.78
2023-03-13T11:02:47.712Z,98988.22
2023-03-13T11:03:52.861Z,98984.34
2023-03-13T11:04:56.760Z,98991.50
2023-03-13T11:06:04.037Z,98994.47
2023-03-13T11:07:15.774Z,99005.88
2023-03-13T11:08:34.056Z,99002.47
2023-03-13T11:09:37.975Z,99002.69
2023-03-13T11:10:56.944Z,99001.25
2023-03-13T11:12:27.268Z,99008.97
2023-03-13T11:13:43.068Z,99001.19
2023-03-13T11:14:45.768Z,98996.19
2023-03-13T11:15:57.553Z,99004.16
2023-03-13T11:17:15.370Z,99007.44
2023-03-13T11:18:55.076Z,99015.97
2023-03-13T11:20:14.018Z,99009.81
2023-03-13T11:21:24.822Z,99007.06
2023-03-13T11:22:46.666Z,99014.44
2023-03-13T11:24:04.408Z,99014.13
2023-03-13T11:25:58.889Z,98994.44
2023-03-13T11:27:15.453Z,99007.66
2023-03-13T11:28:36.748Z,99017.63
2023-03-13T11:29:55.493Z,99011.75
2023-03-13T11:31:18.105Z,98997.91
2023-03-13T11:32:26.911Z,98988.16
2023-03-13T11:33:47.626Z,98996.47
2023-03-13T11:34:56.467Z,98996.16
2023-03-13T11:36:07.490Z,98997.81
2023-03-13T11:37:13.477Z,98991.13
2023-03-13T11:38:34.367Z,98999.44
2023-03-13T11:39:42.699Z,99004.69
2023-03-13T11:41:21.030Z,98999.94
2023-03-13T11:42:44.708Z,98979.41
2023-03-13T11:44:09.022Z,98977.78
2023-03-13T11:45:39.319Z,98983.84
2023-03-13T11:47:05.411Z,98985.16
2023-03-13T11:48:23.904Z,98989.06
2023-03-13T11:49:39.798Z,98987.41
2023-03-13T11:51:14.623Z,98981.88
2023-03-13T11:52:45.279Z,98973.25
2023-03-13T11:54:25.563Z,98978.78
2023-03-13T11:55:54.201Z,98978.78
2023-03-13T11:56:58.854Z,98976.00
2023-03-13T11:58:07.152Z,98977.16
2023-03-13T11:59:37.773Z,98964.94
2023-03-13T12:00:50.846Z,98971.31
2023-03-13T12:01:59.399Z,98968.53
2023-03-13T12:03:25.708Z,98962.16
2023-03-13T12:04:40.056Z,98961.34
2023-03-13T12:05:52.197Z,98947.50
2023-03-13T12:07:29.846Z,98952.22
2023-03-13T12:08:41.500Z,98945.53
2023-03-13T12:09:49.902Z,98946.38
2023-03-13T12:11:07.368Z,98934.44
2023-03-13T12:12:20.007Z,98934.44
2023-03-13T12:14:22.625Z,98935.78
2023-03-13T12:15:45.870Z,98938.25
2023-03-13T12:16:57.272Z,98928.78
2023-03-13T12:18:25.425Z,98923.75
2023-03-13T12:19:34.723Z,98927.06
2023-03-13T12:20:53.908Z,98918.41
2023-03-13T12:22:04.660Z,98902.59
2023-03-13T12:23:07.113Z,98901.97
2023-03-13T12:24:23.051Z,98898.91
2023-03-13T12:25:34.470Z,98894.16
2023-03-13T12:26:46.572Z,98882.44
2023-03-13T12:27:54.001Z,98885.72
2023-03-13T12:29:33.529Z,98882.31
2023-03-13T12:30:53.066Z,98881.06
2023-03-13T12:32:04.577Z,98879.28
2023-03-13T12:33:20.297Z,98876.72
2023-03-13T12:34:36.240Z,98868.91
2023-03-13T12:35:44.377Z,98869.06
2023-03-13T12:37:12.696Z,98869.25
2023-03-13T12:38:26.177Z,98867.50
2023-03-13T12:39:52.189Z,98856.59
2023-03-13T12:41:11.139Z,98853.69
2023-03-13T12:42:50.216Z,98856.66
2023-03-13T12:44:07.624Z,98854.56
2023-03-13T12:45:25.123Z,98850.03
2023-03-13T12:46:39.267Z,98839.94
2023-03-13T12:48:04.616Z,98848.44
2023-03-13T12:49:15.552Z,98848.63
2023-03-13T12:50:42.007Z,98834.94
2023-03-13T12:51:50.112Z,98847.34
2023-03-13T12:52:58.931Z,98844.44
2023-03-13T12:54:06.981Z,98834.66
2023-03-13T12:55:44.394Z,98830.41
2023-03-13T12:56:52.784Z,98843.31
2023-03-13T12:58:15.132Z,98847.41
2023-03-13T12:59:48.220Z,98847.28
2023-03-13T13:00:52.109Z,98833.06
2023-03-13T13:01:55.882Z,98845.47
2023-03-13T13:03:08.010Z,98835.69
2023-03-13T13:04:17.284Z,98846.31
2023-03-13T13:05:23.625Z,98838.97
2023-03-13T13:06:28.674Z,98854.19
2023-03-13T13:07:34.576Z,98833.09
2023-03-13T13:09:07.805Z,98836.38
2023-03-13T13:10:13.024Z,98842.09
2023-03-13T13:11:33.832Z,98841.78
2023-03-13T13:12:38.738Z,98849.47
2023-03-13T13:13:42.198Z,98851.09
2023-03-13T13:14:52.609Z,98842.13
2023-03-13T13:16:05.375Z,98848.66
2023-03-13T13:17:25.936Z,98840.31
2023-03-13T13:18:33.771Z,98832.16
2023-03-13T13:19:39.183Z,98843.78
2023-03-13T13:20:48.763Z,98841.47
2023-03-13T13:22:29.787Z,98839.22
2023-03-13T13:23:38.790Z,98833.16
2023-03-13T13:24:50.863Z,98833.69
2023-03-13T13:25:56.699Z,98840.22
2023-03-13T13:26:59.465Z,98831.22
2023-03-13T13:28:35.578Z,98820.28
2023-03-13T13:29:52.788Z,98814.41
2023-03-13T13:30:56.713Z,98811.81